Terminal Aerodrome Forecast
Issued by NWS Austin/San Antonio, TX

Home | Current Version | Previous Version | Text Only | Print | Product List | Glossary On
Versions: 1 2 3 4 5 6 7 8 9 10 11 12 13 14 15 16
000
FTUS44 KEWX 040543
TAFAUS
TAF
KAUS 040543Z 0406/0512 15010KT P6SM FEW015
     FM040800 16005KT P6SM BKN015
     FM041200 16005KT 6SM BR OVC006
     FM041500 16010KT P6SM OVC015
     FM041800 15015KT P6SM SCT040=

USA.gov is the U.S. government's official web portal to all federal, state and local government web resources and services.